Strait of Georgia - north of Nanaimo: Past 24 Hour Conditions

 

Halibut Bank - 46146

07:00 AM PDT 18 April 2014Buoy position: 49.34N 123.72W
This table is a summary of hourly weather conditions for the past 24 hours.
Date / Time
(PDT)
Wind(knots) Wave height(m) Wave period(s) Pressure(kPa) Air tempC) Water tempC)
18 April 2014
7:00 NW 10 gust 12 0.3 3.0 101.6 8 10
6:00 WNW 10 gust 12 0.3 3.0 101.5 8 10
5:00 WNW 12 gust 12 0.4 3.0 101.4 8 10
4:00 WNW 14 gust 16 0.4 3.0 101.3 9 10
3:00 WNW 14 gust 16 0.4 3.0 101.2 9 10
2:00 NW 12 gust 16 0.3 4.0 101.2 9 10
1:00 WNW 12 gust 16 0.4 4.0 101.1 9 10
0:00 NW 12 gust 14 0.5 4.0 101.0 9 10
17 April 2014
23:00 WNW 14 gust 16 0.7 4.0 100.9 9 10
22:00 W 18 gust 19 1.0 5.0 100.8 8 9
21:00 W 23 gust 29 1.1 5.0 100.7 8 9
20:00 WNW 21 gust 25 1.1 4.0 100.6 8 9
19:00 W 27 gust 33 0.5 3.0 100.5 8 9
18:00 ESE 14 gust 16 0.6 3.0 100.5 10 9
17:00 ESE 16 gust 19 0.6 3.0 100.5 10 10
16:00 E 16 gust 19 0.6 3.0 100.5 10 10
15:00 ESE 18 gust 21 0.7 4.0 100.6 10 10
14:00 E 18 gust 19 0.7 4.0 100.7 10 10
13:00 E 16 gust 19 0.7 4.0 100.7 10 10
12:00 ESE 19 gust 21 0.8 4.0 100.8 10 10
11:00 ESE 18 gust 19 0.8 4.0 100.8 10 10
10:00 E 16 gust 19 0.7 3.0 100.8 10 10
9:00 E 16 gust 19 0.5 3.0 100.8 10 10
8:00 E 18 gust 21 0.5 3.0 100.8 10 10
7:00 E 18 gust 21 0.4 3.0 100.9 10 10
 
Map of Pacific - Georgia Basin marine weather areas Tsawwassen Ferry Terminal Sentry Shoal - 46131 Halibut Bank - 46146 La Perouse Bank - 46206 Discovery Island Esquimalt Harbour Kelp Reefs Malahat Race Rocks Lightstation Saturna Island Sheringham Point University of Victoria Victoria Gonzales Victoria Int'l Airport Ballenas Islands Campbell River Airport Comox Airport Entrance Island Fanny Island Nanaimo Airport Sisters Islets Estevan Point Tofino Airport Grief Point Powell River Airport Sechelt Point Atkinson Sand Heads Lightstation Vancouver Harbour Vancouver Int'l Airport West Vancouver Port Alberni Howe Sound - Pam Rocks Squamish Airport